Time;durP1;ratioP1;P1;durP2;ratioP2;P2;SDS_P1;SDS_P2;PMS_P1;PMS_P2;Temp;Humidity;BMP_temperature;BMP_pressure;BME280_temperature;BME280_humidity;BME280_pressure;Samples;Min_cycle;Max_cycle;Signal;HPM_P1;HPM_P2
2023/06/18 00:00:11;;;;;;;5.80;3.50;;;;;;;;;;5075091;28;20810;-53
2023/06/18 00:02:37;;;;;;;15.77;5.55;;;;;;;;;;5075665;28;20048;-54
2023/06/18 00:05:03;;;;;;;6.00;4.15;;;;;;;;;;5073616;28;20041;-61
2023/06/18 00:07:29;;;;;;;7.28;4.13;;;;;;;;;;5075022;28;20147;-60
2023/06/18 00:09:57;;;;;;;6.18;3.83;;;;;;;;;;5067433;28;20045;-61
2023/06/18 00:12:23;;;;;;;7.38;3.35;;;;;;;;;;5074831;28;20045;-61
2023/06/18 00:14:49;;;;;;;6.32;4.43;;;;;;;;;;5071373;28;20125;-60
2023/06/18 00:17:15;;;;;;;4.47;3.40;;;;;;;;;;5074846;28;20045;-61
2023/06/18 00:19:41;;;;;;;4.93;3.95;;;;;;;;;;5076297;28;20622;-60
2023/06/18 00:22:09;;;;;;;5.32;3.65;;;;;;;;;;5079188;28;20055;-60
2023/06/18 00:24:35;;;;;;;7.63;3.75;;;;;;;;;;5077374;28;20527;-60
2023/06/18 00:27:01;;;;;;;5.93;3.65;;;;;;;;;;5077143;28;20037;-59
2023/06/18 00:29:29;;;;;;;7.10;3.90;;;;;;;;;;5076845;28;20088;-59
2023/06/18 00:31:55;;;;;;;5.78;3.83;;;;;;;;;;5075310;28;20076;-59
2023/06/18 00:34:32;;;;;;;5.40;3.20;;;;;;;;;;5077205;28;20099;-59
2023/06/18 00:36:59;;;;;;;5.50;3.50;;;;;;;;;;5077916;28;20044;-59
2023/06/18 00:39:25;;;;;;;3.50;2.90;;;;;;;;;;5076155;28;20039;-59
2023/06/18 00:41:51;;;;;;;5.43;3.22;;;;;;;;;;5090442;27;20048;-59
2023/06/18 00:44:21;;;;;;;5.30;2.92;;;;;;;;;;5077867;27;20041;-59
2023/06/18 00:46:51;;;;;;;4.70;3.08;;;;;;;;;;5078371;28;20197;-59
2023/06/18 00:49:18;;;;;;;8.02;3.13;;;;;;;;;;5076932;28;20045;-59
2023/06/18 00:51:45;;;;;;;3.95;2.95;;;;;;;;;;5077427;28;20033;-59
2023/06/18 00:54:17;;;;;;;6.07;2.70;;;;;;;;;;5091906;27;20194;-59
2023/06/18 00:56:50;;;;;;;2.63;1.90;;;;;;;;;;5078286;28;20064;-59
2023/06/18 00:59:22;;;;;;;6.60;2.80;;;;;;;;;;5079285;28;20093;-59
2023/06/18 01:01:58;;;;;;;6.63;2.90;;;;;;;;;;5078464;28;20056;-59
2023/06/18 01:04:26;;;;;;;6.38;3.17;;;;;;;;;;5078614;28;20096;-59
2023/06/18 01:06:57;;;;;;;4.00;2.65;;;;;;;;;;5077549;28;20047;-59
2023/06/18 01:09:24;;;;;;;5.35;2.90;;;;;;;;;;5077988;28;20552;-58
2023/06/18 01:11:53;;;;;;;3.85;2.28;;;;;;;;;;5078425;28;20443;-59
2023/06/18 01:14:21;;;;;;;4.18;2.78;;;;;;;;;;5077908;28;20131;-59
2023/06/18 01:16:49;;;;;;;4.30;2.72;;;;;;;;;;5078496;28;20041;-59
2023/06/18 01:19:35;;;;;;;3.63;2.53;;;;;;;;;;5077404;28;20047;-59
2023/06/18 01:22:06;;;;;;;7.78;3.30;;;;;;;;;;5077908;28;20051;-59
2023/06/18 01:24:36;;;;;;;4.22;2.50;;;;;;;;;;5077336;28;20145;-59
2023/06/18 01:27:03;;;;;;;5.63;2.78;;;;;;;;;;5074490;28;20559;-59
2023/06/18 01:29:34;;;;;;;5.32;2.72;;;;;;;;;;5069499;28;20409;-59
2023/06/18 01:32:00;;;;;;;3.90;2.47;;;;;;;;;;5075651;28;20040;-59
2023/06/18 01:34:27;;;;;;;3.97;2.60;;;;;;;;;;5077038;28;20045;-59
2023/06/18 01:36:56;;;;;;;4.72;2.65;;;;;;;;;;5077634;28;20043;-59
2023/06/18 01:39:41;;;;;;;3.22;2.40;;;;;;;;;;5078353;28;20091;-59
2023/06/18 01:42:17;;;;;;;4.25;2.65;;;;;;;;;;5075914;28;20040;-59
2023/06/18 01:44:46;;;;;;;3.88;2.42;;;;;;;;;;5076090;28;20631;-59
2023/06/18 01:47:14;;;;;;;6.10;2.40;;;;;;;;;;5076432;28;20040;-59
2023/06/18 01:49:42;;;;;;;5.90;3.08;;;;;;;;;;5077080;28;20091;-58
2023/06/18 01:52:08;;;;;;;7.38;3.03;;;;;;;;;;5077128;28;20582;-58
2023/06/18 01:54:36;;;;;;;5.80;2.63;;;;;;;;;;5075781;28;20045;-59
2023/06/18 01:57:02;;;;;;;5.15;2.97;;;;;;;;;;5073861;28;20029;-59
2023/06/18 01:59:29;;;;;;;9.45;2.72;;;;;;;;;;5077010;28;20044;-59
2023/06/18 02:01:56;;;;;;;8.70;3.22;;;;;;;;;;5076708;28;20516;-59
2023/06/18 02:04:22;;;;;;;4.82;2.65;;;;;;;;;;5075300;28;20170;-59
2023/06/18 02:06:48;;;;;;;7.00;2.83;;;;;;;;;;5074989;28;20037;-59
2023/06/18 02:09:15;;;;;;;3.80;2.60;;;;;;;;;;5076674;28;20038;-59
2023/06/18 02:11:41;;;;;;;6.32;3.72;;;;;;;;;;5077320;28;20899;-59
2023/06/18 02:14:07;;;;;;;8.27;4.18;;;;;;;;;;5075593;28;20040;-59
2023/06/18 02:16:33;;;;;;;11.75;5.07;;;;;;;;;;5091786;27;20122;-60
2023/06/18 02:18:59;;;;;;;6.32;3.30;;;;;;;;;;5073707;27;20056;-59
2023/06/18 02:21:26;;;;;;;9.88;3.22;;;;;;;;;;5077635;28;20507;-59
2023/06/18 02:23:52;;;;;;;4.80;3.08;;;;;;;;;;5090609;27;20115;-59
2023/06/18 02:26:19;;;;;;;7.95;3.30;;;;;;;;;;5077061;28;20068;-59
2023/06/18 02:28:46;;;;;;;9.88;2.78;;;;;;;;;;5076159;28;20805;-59
2023/06/18 02:31:12;;;;;;;8.73;4.03;;;;;;;;;;5076149;28;20037;-59
2023/06/18 02:33:38;;;;;;;9.32;4.20;;;;;;;;;;5074875;28;20518;-59
2023/06/18 02:36:04;;;;;;;5.15;3.00;;;;;;;;;;5075746;28;21175;-59
2023/06/18 02:38:30;;;;;;;14.45;4.05;;;;;;;;;;5076207;28;20037;-59
2023/06/18 02:40:57;;;;;;;4.85;2.80;;;;;;;;;;5077052;28;20550;-59
2023/06/18 02:43:25;;;;;;;6.38;3.50;;;;;;;;;;5074052;28;20060;-59
2023/06/18 02:45:52;;;;;;;5.57;2.42;;;;;;;;;;5076226;28;20043;-59
2023/06/18 02:48:18;;;;;;;5.32;3.50;;;;;;;;;;5075829;28;20830;-59
2023/06/18 02:50:44;;;;;;;6.40;2.90;;;;;;;;;;5074050;28;20444;-59
2023/06/18 02:53:10;;;;;;;4.25;2.60;;;;;;;;;;5073829;28;20594;-59
2023/06/18 02:55:36;;;;;;;5.82;2.72;;;;;;;;;;5066645;28;20586;-59
2023/06/18 02:58:03;;;;;;;6.97;3.65;;;;;;;;;;5073419;28;20036;-59
2023/06/18 03:00:30;;;;;;;8.90;3.72;;;;;;;;;;5071119;28;20043;-59
2023/06/18 03:02:56;;;;;;;8.02;4.40;;;;;;;;;;5073932;28;20045;-59
2023/06/18 03:05:22;;;;;;;5.63;3.30;;;;;;;;;;5075308;28;20068;-58
2023/06/18 03:07:48;;;;;;;5.53;3.00;;;;;;;;;;5075533;28;20586;-59
2023/06/18 03:10:14;;;;;;;8.13;3.35;;;;;;;;;;5072565;28;20051;-59
2023/06/18 03:12:40;;;;;;;6.60;3.05;;;;;;;;;;5074983;28;20131;-59
2023/06/18 03:15:06;;;;;;;5.82;3.15;;;;;;;;;;5071885;28;20555;-59
2023/06/18 03:17:33;;;;;;;5.63;3.67;;;;;;;;;;5075090;28;20537;-60
2023/06/18 03:19:59;;;;;;;6.30;3.15;;;;;;;;;;5087374;27;20041;-58
2023/06/18 03:22:25;;;;;;;6.95;3.30;;;;;;;;;;5073911;28;20041;-61
2023/06/18 03:24:51;;;;;;;7.45;3.90;;;;;;;;;;5073532;28;20132;-59
2023/06/18 03:27:17;;;;;;;4.60;3.05;;;;;;;;;;5073354;28;20110;-59
2023/06/18 03:29:44;;;;;;;5.13;3.60;;;;;;;;;;5071615;28;20110;-59
2023/06/18 03:32:10;;;;;;;8.93;3.60;;;;;;;;;;5073982;28;20093;-59
2023/06/18 03:34:36;;;;;;;5.78;3.92;;;;;;;;;;5074946;28;20047;-59
2023/06/18 03:37:02;;;;;;;6.55;3.92;;;;;;;;;;5074867;27;20418;-59
2023/06/18 03:39:28;;;;;;;6.38;3.72;;;;;;;;;;5074053;28;20110;-59
2023/06/18 03:41:54;;;;;;;7.47;4.57;;;;;;;;;;5074373;28;20451;-59
2023/06/18 03:44:21;;;;;;;9.02;3.72;;;;;;;;;;5087986;27;20565;-59
2023/06/18 03:46:47;;;;;;;6.53;4.40;;;;;;;;;;5074672;28;20095;-59
2023/06/18 03:49:13;;;;;;;8.00;3.50;;;;;;;;;;5073278;28;20036;-58
2023/06/18 03:51:39;;;;;;;5.13;3.90;;;;;;;;;;5074208;28;20674;-58
2023/06/18 03:54:06;;;;;;;8.80;3.47;;;;;;;;;;5073454;28;20052;-59
2023/06/18 03:56:32;;;;;;;6.20;3.35;;;;;;;;;;5078202;28;20223;-58
2023/06/18 03:58:58;;;;;;;5.50;4.20;;;;;;;;;;5073494;27;20095;-59
2023/06/18 04:01:24;;;;;;;7.10;3.63;;;;;;;;;;5074798;28;20052;-58
2023/06/18 04:03:51;;;;;;;8.02;3.88;;;;;;;;;;5077714;28;20642;-58
2023/06/18 04:06:17;;;;;;;5.40;3.20;;;;;;;;;;5077990;28;20466;-59
2023/06/18 04:08:43;;;;;;;5.30;3.72;;;;;;;;;;5078491;28;20135;-58
2023/06/18 04:11:09;;;;;;;6.88;4.57;;;;;;;;;;5079617;28;20120;-58
2023/06/18 04:13:35;;;;;;;5.47;3.40;;;;;;;;;;5077763;28;20499;-58
2023/06/18 04:16:02;;;;;;;6.15;3.75;;;;;;;;;;5079480;28;20060;-58
2023/06/18 04:18:29;;;;;;;5.38;3.85;;;;;;;;;;5078080;28;20079;-58
2023/06/18 04:20:55;;;;;;;6.35;3.50;;;;;;;;;;5080172;28;20076;-58
2023/06/18 04:23:21;;;;;;;8.35;3.53;;;;;;;;;;5079049;28;20187;-58
2023/06/18 04:25:47;;;;;;;6.97;3.22;;;;;;;;;;5079669;28;21027;-58
2023/06/18 04:28:13;;;;;;;6.25;3.78;;;;;;;;;;5078417;28;20576;-59
2023/06/18 04:30:39;;;;;;;6.32;4.05;;;;;;;;;;5078896;28;20720;-58
2023/06/18 04:33:06;;;;;;;5.40;3.67;;;;;;;;;;5077815;28;20130;-58
2023/06/18 04:35:32;;;;;;;6.07;4.88;;;;;;;;;;5078359;28;20044;-59
2023/06/18 04:37:58;;;;;;;5.63;4.38;;;;;;;;;;5078983;28;20050;-58
2023/06/18 04:40:24;;;;;;;6.65;4.15;;;;;;;;;;5078887;28;20048;-59
2023/06/18 04:42:50;;;;;;;6.70;3.90;;;;;;;;;;5076557;28;20562;-59
2023/06/18 04:45:16;;;;;;;5.75;3.85;;;;;;;;;;5077816;28;20562;-58
2023/06/18 04:47:42;;;;;;;11.13;4.82;;;;;;;;;;5077620;28;20265;-59
2023/06/18 04:50:09;;;;;;;6.00;3.47;;;;;;;;;;5078295;28;20482;-58
2023/06/18 04:52:35;;;;;;;7.57;3.65;;;;;;;;;;5077498;28;20044;-58
2023/06/18 04:55:01;;;;;;;7.30;3.60;;;;;;;;;;5077609;28;20037;-59
2023/06/18 04:57:30;;;;;;;5.82;3.15;;;;;;;;;;5076682;28;20121;-58
2023/06/18 04:59:56;;;;;;;7.72;3.60;;;;;;;;;;5092164;27;20075;-58
2023/06/18 05:02:22;;;;;;;6.60;3.80;;;;;;;;;;5077248;27;20037;-58
2023/06/18 05:04:48;;;;;;;7.93;3.47;;;;;;;;;;5074008;28;20824;-58
2023/06/18 05:07:16;;;;;;;5.35;3.70;;;;;;;;;;5074883;28;20036;-58
2023/06/18 05:09:42;;;;;;;3.88;2.95;;;;;;;;;;5076076;28;20060;-58
2023/06/18 05:12:08;;;;;;;7.35;3.90;;;;;;;;;;5074708;28;20060;-59
2023/06/18 05:14:35;;;;;;;7.97;3.97;;;;;;;;;;5073142;28;20524;-58
2023/06/18 05:17:01;;;;;;;8.82;4.88;;;;;;;;;;5077303;28;20040;-58
2023/06/18 05:19:27;;;;;;;8.60;5.03;;;;;;;;;;5076592;28;20595;-59
2023/06/18 05:21:53;;;;;;;7.78;4.53;;;;;;;;;;5078423;28;20055;-59
2023/06/18 05:24:19;;;;;;;5.68;3.22;;;;;;;;;;5076716;27;20176;-58
2023/06/18 05:26:45;;;;;;;7.10;3.65;;;;;;;;;;5093716;27;20127;-59
2023/06/18 05:29:13;;;;;;;5.13;3.50;;;;;;;;;;5077055;28;20135;-59
2023/06/18 05:31:39;;;;;;;6.40;3.38;;;;;;;;;;5078899;27;20106;-58
2023/06/18 05:34:05;;;;;;;7.50;4.00;;;;;;;;;;5076184;28;20045;-58
2023/06/18 05:36:31;;;;;;;7.13;3.90;;;;;;;;;;5076851;28;20106;-59
2023/06/18 05:39:02;;;;;;;6.35;4.05;;;;;;;;;;5077921;28;20041;-58
2023/06/18 05:41:28;;;;;;;7.78;4.22;;;;;;;;;;5077384;28;20040;-59
2023/06/18 05:43:54;;;;;;;6.47;3.78;;;;;;;;;;5077153;28;20037;-59
2023/06/18 05:46:20;;;;;;;6.35;3.95;;;;;;;;;;5091334;27;20049;-58
2023/06/18 05:48:46;;;;;;;6.18;3.75;;;;;;;;;;5077148;28;20037;-59
2023/06/18 05:51:12;;;;;;;6.95;4.30;;;;;;;;;;5077607;28;20040;-59
2023/06/18 05:53:39;;;;;;;7.32;3.95;;;;;;;;;;5077316;28;20037;-58
2023/06/18 05:56:05;;;;;;;5.43;3.50;;;;;;;;;;5077527;28;20051;-60
2023/06/18 05:58:31;;;;;;;5.43;4.25;;;;;;;;;;5075451;28;20516;-59
2023/06/18 06:00:57;;;;;;;6.40;3.50;;;;;;;;;;5070382;28;20138;-59
2023/06/18 06:03:23;;;;;;;5.70;3.72;;;;;;;;;;5073609;28;20037;-59
2023/06/18 06:05:49;;;;;;;11.00;4.10;;;;;;;;;;5076972;28;20127;-58
2023/06/18 06:08:15;;;;;;;9.23;4.45;;;;;;;;;;5076017;28;20128;-59
2023/06/18 06:10:42;;;;;;;5.82;4.15;;;;;;;;;;5076922;28;20045;-59
2023/06/18 06:13:09;;;;;;;8.15;4.80;;;;;;;;;;5075357;28;20041;-59
2023/06/18 06:15:35;;;;;;;6.93;3.97;;;;;;;;;;5075922;28;20554;-59
2023/06/18 06:18:01;;;;;;;9.27;4.30;;;;;;;;;;5074778;28;20051;-59
2023/06/18 06:20:28;;;;;;;7.78;4.47;;;;;;;;;;5077279;28;20775;-58
2023/06/18 06:22:54;;;;;;;8.63;4.32;;;;;;;;;;5075534;28;20062;-58
2023/06/18 06:25:20;;;;;;;6.40;4.20;;;;;;;;;;5074434;28;20122;-59
2023/06/18 06:27:46;;;;;;;5.43;3.92;;;;;;;;;;5075613;28;20079;-58
2023/06/18 06:30:12;;;;;;;8.70;3.90;;;;;;;;;;5075793;28;20147;-59
2023/06/18 06:32:40;;;;;;;6.72;4.65;;;;;;;;;;5068764;28;20060;-59
2023/06/18 06:35:06;;;;;;;8.63;4.20;;;;;;;;;;5075538;28;20150;-59
2023/06/18 06:37:32;;;;;;;8.95;4.10;;;;;;;;;;5075550;28;20097;-59
2023/06/18 06:39:59;;;;;;;11.55;4.55;;;;;;;;;;5076938;27;20444;-58
2023/06/18 06:42:25;;;;;;;7.10;4.35;;;;;;;;;;5075220;28;20045;-59
2023/06/18 06:44:52;;;;;;;10.50;4.72;;;;;;;;;;5076576;28;20516;-59
2023/06/18 06:47:18;;;;;;;7.50;3.83;;;;;;;;;;5075129;28;20499;-59
2023/06/18 06:49:47;;;;;;;6.60;4.65;;;;;;;;;;5077018;28;20067;-58
2023/06/18 06:52:13;;;;;;;6.85;4.10;;;;;;;;;;5075407;28;20172;-60
2023/06/18 06:54:39;;;;;;;5.50;3.65;;;;;;;;;;5075527;28;20114;-59
2023/06/18 06:57:06;;;;;;;6.93;4.20;;;;;;;;;;5074751;28;20052;-59
2023/06/18 06:59:32;;;;;;;7.07;4.25;;;;;;;;;;5075055;28;20087;-60
2023/06/18 07:01:58;;;;;;;12.02;4.65;;;;;;;;;;5075384;27;20640;-59
2023/06/18 07:04:24;;;;;;;9.63;3.60;;;;;;;;;;5075466;28;20047;-59
2023/06/18 07:06:50;;;;;;;7.13;4.03;;;;;;;;;;5072786;28;20129;-59
2023/06/18 07:09:16;;;;;;;5.30;3.90;;;;;;;;;;5076083;28;20045;-59
2023/06/18 07:11:43;;;;;;;11.95;4.38;;;;;;;;;;5076036;28;20045;-59
2023/06/18 07:14:10;;;;;;;7.10;3.75;;;;;;;;;;5067236;28;20044;-59
2023/06/18 07:16:36;;;;;;;7.75;3.95;;;;;;;;;;5076874;28;20520;-59
2023/06/18 07:19:02;;;;;;;7.78;4.35;;;;;;;;;;5075964;28;20060;-59
2023/06/18 07:21:28;;;;;;;5.50;3.65;;;;;;;;;;5075735;28;20075;-59
2023/06/18 07:23:54;;;;;;;8.10;4.05;;;;;;;;;;5074590;28;20096;-59
2023/06/18 07:26:20;;;;;;;6.07;3.53;;;;;;;;;;5074086;28;21684;-59
2023/06/18 07:28:46;;;;;;;5.35;3.20;;;;;;;;;;5074761;28;20050;-59
2023/06/18 07:31:12;;;;;;;5.95;3.22;;;;;;;;;;5066787;28;20142;-59
2023/06/18 07:33:38;;;;;;;8.07;3.95;;;;;;;;;;5074682;28;20633;-59
2023/06/18 07:36:05;;;;;;;4.80;3.63;;;;;;;;;;5075652;28;20892;-59
2023/06/18 07:38:31;;;;;;;4.75;3.40;;;;;;;;;;5076013;28;20456;-59
2023/06/18 07:40:57;;;;;;;5.38;3.42;;;;;;;;;;5065719;28;20029;-60
2023/06/18 07:43:23;;;;;;;7.55;3.92;;;;;;;;;;5075381;27;20712;-59
2023/06/18 07:45:49;;;;;;;6.95;3.28;;;;;;;;;;5091680;27;20067;-59
2023/06/18 07:48:16;;;;;;;7.45;3.58;;;;;;;;;;5076046;28;20041;-59
2023/06/18 07:50:42;;;;;;;5.32;3.67;;;;;;;;;;5074238;28;20041;-58
2023/06/18 07:53:08;;;;;;;7.10;3.38;;;;;;;;;;5072975;28;20048;-59
2023/06/18 07:55:34;;;;;;;6.85;3.95;;;;;;;;;;5070261;28;20657;-59
2023/06/18 07:58:00;;;;;;;5.28;4.10;;;;;;;;;;5072487;28;20135;-59
2023/06/18 08:00:26;;;;;;;6.97;3.35;;;;;;;;;;5072377;28;20119;-59
2023/06/18 08:02:52;;;;;;;6.32;4.03;;;;;;;;;;5072167;28;20090;-59
2023/06/18 08:05:18;;;;;;;5.78;3.80;;;;;;;;;;5066871;28;20155;-59
2023/06/18 08:07:44;;;;;;;4.63;3.00;;;;;;;;;;5082348;27;20044;-59
2023/06/18 08:10:11;;;;;;;5.60;3.95;;;;;;;;;;5070404;28;20041;-59
2023/06/18 08:12:37;;;;;;;5.35;3.67;;;;;;;;;;5070730;28;20044;-59
2023/06/18 08:15:03;;;;;;;4.93;3.67;;;;;;;;;;5070094;28;20048;-59
2023/06/18 08:17:29;;;;;;;4.40;3.17;;;;;;;;;;5065741;27;20121;-59
2023/06/18 08:19:55;;;;;;;4.72;3.63;;;;;;;;;;5068051;28;20116;-59
2023/06/18 08:22:21;;;;;;;5.28;3.65;;;;;;;;;;5074023;28;20072;-59
2023/06/18 08:24:47;;;;;;;4.53;3.83;;;;;;;;;;5071989;28;20056;-58
2023/06/18 08:27:15;;;;;;;4.60;3.58;;;;;;;;;;5072788;28;20037;-58
2023/06/18 08:29:41;;;;;;;5.93;3.53;;;;;;;;;;5070659;27;20044;-59
2023/06/18 08:32:07;;;;;;;4.57;3.40;;;;;;;;;;5068452;28;20512;-59
2023/06/18 08:34:34;;;;;;;5.40;3.28;;;;;;;;;;5061481;28;20999;-59
2023/06/18 08:37:01;;;;;;;4.28;2.70;;;;;;;;;;5075011;28;20048;-59
2023/06/18 08:39:27;;;;;;;4.70;2.97;;;;;;;;;;5086912;27;20041;-59
2023/06/18 08:41:54;;;;;;;3.92;2.78;;;;;;;;;;5075153;28;20086;-59
2023/06/18 08:44:23;;;;;;;5.88;3.42;;;;;;;;;;5074701;28;20040;-59
2023/06/18 08:46:50;;;;;;;5.45;3.20;;;;;;;;;;5075983;28;20120;-59
2023/06/18 08:49:16;;;;;;;4.05;3.53;;;;;;;;;;5075935;28;20510;-59
2023/06/18 08:51:45;;;;;;;5.43;3.70;;;;;;;;;;5088791;27;20040;-59
2023/06/18 08:54:32;;;;;;;15.07;3.65;;;;;;;;;;5072707;28;20056;-59
2023/06/18 08:57:01;;;;;;;5.57;3.50;;;;;;;;;;5075600;28;20032;-59
2023/06/18 08:59:27;;;;;;;6.35;3.95;;;;;;;;;;5075240;28;20048;-59
2023/06/18 09:01:54;;;;;;;4.60;3.35;;;;;;;;;;5074451;28;20045;-59
2023/06/18 09:04:21;;;;;;;5.18;4.25;;;;;;;;;;5074535;28;20574;-59
2023/06/18 09:06:48;;;;;;;7.15;4.30;;;;;;;;;;5069628;28;20036;-59
2023/06/18 09:09:14;;;;;;;5.20;3.88;;;;;;;;;;5067781;28;20038;-59
2023/06/18 09:11:40;;;;;;;5.25;4.10;;;;;;;;;;5064450;27;21357;-59
2023/06/18 09:14:06;;;;;;;5.05;3.53;;;;;;;;;;5069231;28;20139;-59
2023/06/18 09:16:32;;;;;;;6.32;3.60;;;;;;;;;;5073219;28;20109;-59
2023/06/18 09:19:00;;;;;;;6.55;3.95;;;;;;;;;;5067011;28;20148;-59
2023/06/18 09:21:40;;;;;;;4.78;3.45;;;;;;;;;;5072630;28;20637;-59
2023/06/18 09:24:10;;;;;;;5.13;3.83;;;;;;;;;;5070006;28;20057;-59
2023/06/18 09:26:36;;;;;;;6.15;3.58;;;;;;;;;;5073682;28;20492;-58
2023/06/18 09:29:06;;;;;;;5.05;3.55;;;;;;;;;;5072931;28;20048;-59
2023/06/18 09:31:32;;;;;;;4.55;3.42;;;;;;;;;;5074631;28;20131;-59
2023/06/18 09:33:59;;;;;;;5.45;4.03;;;;;;;;;;5074470;28;20037;-58
2023/06/18 09:36:25;;;;;;;5.80;4.10;;;;;;;;;;5071753;28;20558;-59
2023/06/18 09:38:53;;;;;;;5.05;3.40;;;;;;;;;;5074543;28;20583;-58
2023/06/18 09:41:20;;;;;;;4.53;3.55;;;;;;;;;;5073275;28;20069;-59
2023/06/18 09:43:48;;;;;;;5.50;4.30;;;;;;;;;;5073817;28;20048;-59
2023/06/18 09:46:15;;;;;;;5.85;4.07;;;;;;;;;;5075117;28;20503;-58
2023/06/18 09:48:42;;;;;;;5.63;4.03;;;;;;;;;;5074138;28;20040;-59
2023/06/18 09:51:08;;;;;;;6.18;3.90;;;;;;;;;;5074415;28;20622;-59
2023/06/18 09:53:34;;;;;;;7.18;4.40;;;;;;;;;;5072023;28;20126;-59
2023/06/18 09:56:07;;;;;;;6.70;3.80;;;;;;;;;;5076816;28;20108;-59
2023/06/18 09:59:01;;;;;;;5.18;4.18;;;;;;;;;;5076744;27;20037;-59
2023/06/18 10:01:29;;;;;;;4.75;3.53;;;;;;;;;;5076218;28;20053;-59
2023/06/18 10:03:56;;;;;;;4.50;3.67;;;;;;;;;;5078193;28;20087;-52
2023/06/18 10:06:23;;;;;;;4.35;3.38;;;;;;;;;;5082789;27;20036;-52
2023/06/18 10:08:53;;;;;;;4.57;3.42;;;;;;;;;;5091300;27;20044;-52
2023/06/18 10:11:20;;;;;;;5.20;3.97;;;;;;;;;;5077186;28;20036;-52
2023/06/18 10:13:51;;;;;;;6.85;3.33;;;;;;;;;;5078079;28;20055;-52
2023/06/18 10:16:18;;;;;;;4.95;3.15;;;;;;;;;;5075832;28;20045;-51
2023/06/18 10:19:04;;;;;;;7.50;5.07;;;;;;;;;;5077771;28;20033;-52
2023/06/18 10:21:31;;;;;;;5.47;3.85;;;;;;;;;;5076124;28;20044;-51
2023/06/18 10:24:21;;;;;;;6.45;3.47;;;;;;;;;;5073466;28;20193;-52
2023/06/18 10:26:47;;;;;;;5.95;4.07;;;;;;;;;;5072328;28;20060;-52
2023/06/18 10:29:13;;;;;;;5.55;3.65;;;;;;;;;;5075796;28;20051;-52
2023/06/18 10:31:40;;;;;;;4.35;3.85;;;;;;;;;;5076704;28;20115;-52
2023/06/18 10:34:06;;;;;;;6.90;4.13;;;;;;;;;;5076857;28;20051;-52
2023/06/18 10:36:33;;;;;;;5.72;4.80;;;;;;;;;;5075475;28;20090;-52
2023/06/18 10:38:59;;;;;;;6.88;4.25;;;;;;;;;;5092606;27;20044;-52
2023/06/18 10:41:27;;;;;;;6.18;5.03;;;;;;;;;;5076280;28;20048;-52
2023/06/18 10:43:54;;;;;;;6.72;4.65;;;;;;;;;;5091110;27;20064;-52
2023/06/18 10:46:21;;;;;;;6.68;5.15;;;;;;;;;;5092257;27;20499;-52
2023/06/18 10:49:06;;;;;;;5.45;4.53;;;;;;;;;;5076497;28;20032;-52
2023/06/18 10:51:32;;;;;;;6.35;4.28;;;;;;;;;;5075414;28;20444;-52
2023/06/18 10:54:17;;;;;;;6.70;4.45;;;;;;;;;;5077119;28;20045;-52
2023/06/18 10:56:51;;;;;;;5.72;4.10;;;;;;;;;;5075531;28;20097;-52
2023/06/18 10:59:17;;;;;;;6.53;4.95;;;;;;;;;;5077426;27;20265;-52
2023/06/18 11:01:43;;;;;;;8.55;5.30;;;;;;;;;;5077077;28;20048;-52
2023/06/18 11:04:09;;;;;;;6.47;4.43;;;;;;;;;;5075947;28;20124;-51
2023/06/18 11:06:35;;;;;;;10.68;4.68;;;;;;;;;;5074870;28;20121;-52
2023/06/18 11:09:01;;;;;;;5.72;4.47;;;;;;;;;;5076241;28;20511;-52
2023/06/18 11:11:31;;;;;;;6.70;4.43;;;;;;;;;;5076148;28;21504;-52
2023/06/18 11:13:57;;;;;;;5.80;4.80;;;;;;;;;;5076798;28;20056;-52
2023/06/18 11:16:23;;;;;;;11.20;4.50;;;;;;;;;;5076683;28;20524;-52
2023/06/18 11:18:53;;;;;;;6.88;5.47;;;;;;;;;;5069265;28;20292;-52
2023/06/18 11:21:20;;;;;;;7.30;4.88;;;;;;;;;;5075712;28;20051;-53
2023/06/18 11:23:47;;;;;;;6.32;4.70;;;;;;;;;;5075813;28;21065;-52
2023/06/18 11:26:17;;;;;;;6.63;4.80;;;;;;;;;;5076214;28;20036;-52
2023/06/18 11:28:44;;;;;;;5.45;4.38;;;;;;;;;;5073824;28;20056;-52
2023/06/18 11:31:10;;;;;;;5.95;4.90;;;;;;;;;;5075558;28;20041;-52
2023/06/18 11:33:38;;;;;;;6.13;4.85;;;;;;;;;;5075663;28;20534;-52
2023/06/18 11:36:08;;;;;;;5.40;4.15;;;;;;;;;;5076237;28;20044;-52
2023/06/18 11:38:34;;;;;;;5.57;4.50;;;;;;;;;;5075466;28;20036;-52
2023/06/18 11:41:00;;;;;;;4.93;4.25;;;;;;;;;;5092186;27;20110;-52
2023/06/18 11:43:26;;;;;;;6.80;4.38;;;;;;;;;;5075702;28;20040;-53
2023/06/18 11:45:53;;;;;;;4.97;4.10;;;;;;;;;;5091112;27;20044;-52
2023/06/18 11:48:23;;;;;;;7.70;4.88;;;;;;;;;;5076336;28;20823;-52
2023/06/18 11:50:53;;;;;;;7.00;4.22;;;;;;;;;;5075882;28;20512;-52
2023/06/18 11:53:20;;;;;;;4.03;3.60;;;;;;;;;;5075439;28;20047;-52
2023/06/18 11:55:46;;;;;;;5.97;4.03;;;;;;;;;;5077008;28;20035;-52
2023/06/18 11:58:12;;;;;;;5.75;4.55;;;;;;;;;;5075886;28;20624;-52
2023/06/18 12:00:38;;;;;;;5.90;4.50;;;;;;;;;;5091046;27;20478;-52
2023/06/18 12:03:04;;;;;;;5.65;4.30;;;;;;;;;;5074756;28;20561;-52
2023/06/18 12:05:37;;;;;;;4.78;4.07;;;;;;;;;;5074565;28;20542;-52
2023/06/18 12:08:10;;;;;;;5.57;4.00;;;;;;;;;;5088889;27;20049;-53
2023/06/18 12:10:37;;;;;;;4.88;3.40;;;;;;;;;;5075972;28;20114;-52
2023/06/18 12:13:07;;;;;;;4.80;3.72;;;;;;;;;;5074576;28;20044;-52
2023/06/18 12:15:43;;;;;;;5.20;4.17;;;;;;;;;;5076081;28;20044;-52
2023/06/18 12:18:28;;;;;;;4.47;3.75;;;;;;;;;;5076603;28;20290;-52
2023/06/18 12:20:54;;;;;;;5.43;4.38;;;;;;;;;;5079883;28;20044;-52
2023/06/18 12:23:22;;;;;;;4.72;4.25;;;;;;;;;;5076936;27;20136;-52
2023/06/18 12:25:48;;;;;;;5.75;4.35;;;;;;;;;;5079332;28;20043;-52
2023/06/18 12:28:15;;;;;;;4.60;3.50;;;;;;;;;;5077903;28;20068;-52
2023/06/18 12:30:41;;;;;;;6.55;3.72;;;;;;;;;;5079597;28;20072;-52
2023/06/18 12:33:07;;;;;;;6.00;3.47;;;;;;;;;;5078446;28;20053;-52
2023/06/18 12:35:34;;;;;;;6.50;4.03;;;;;;;;;;5079255;28;20068;-53
2023/06/18 12:38:05;;;;;;;4.82;3.90;;;;;;;;;;5077663;28;20102;-53
2023/06/18 12:40:31;;;;;;;6.10;3.15;;;;;;;;;;5079057;28;20290;-52
2023/06/18 12:43:01;;;;;;;3.85;2.80;;;;;;;;;;5077753;28;20045;-52
2023/06/18 12:45:28;;;;;;;5.88;3.15;;;;;;;;;;5078153;28;20043;-52
2023/06/18 12:47:54;;;;;;;4.20;2.85;;;;;;;;;;5079508;28;20109;-52
2023/06/18 12:50:21;;;;;;;2.90;2.30;;;;;;;;;;5078684;28;20047;-52
2023/06/18 12:52:47;;;;;;;3.60;2.47;;;;;;;;;;5077680;28;20997;-52
2023/06/18 12:55:14;;;;;;;5.45;2.75;;;;;;;;;;5078783;28;20674;-52
2023/06/18 12:57:44;;;;;;;3.17;2.58;;;;;;;;;;5078541;28;20037;-52
2023/06/18 13:00:16;;;;;;;3.92;2.70;;;;;;;;;;5076102;28;20041;-52
2023/06/18 13:02:43;;;;;;;3.58;2.67;;;;;;;;;;5078611;28;20044;-52
2023/06/18 13:05:09;;;;;;;4.53;2.13;;;;;;;;;;5070220;28;20792;-52
2023/06/18 13:07:37;;;;;;;4.38;2.58;;;;;;;;;;5074199;28;21615;-53
2023/06/18 13:10:03;;;;;;;3.92;2.75;;;;;;;;;;5073328;28;20049;-52
2023/06/18 13:12:30;;;;;;;6.03;2.28;;;;;;;;;;5073278;28;20124;-52
2023/06/18 13:14:57;;;;;;;2.65;1.77;;;;;;;;;;5072984;27;20850;-52
2023/06/18 13:17:23;;;;;;;3.10;2.20;;;;;;;;;;5075451;28;20040;-52
2023/06/18 13:19:49;;;;;;;5.80;2.33;;;;;;;;;;5074598;28;20036;-52
2023/06/18 13:22:15;;;;;;;3.15;1.90;;;;;;;;;;5091180;27;20503;-53
2023/06/18 13:24:41;;;;;;;2.65;1.67;;;;;;;;;;5073598;28;21228;-52
2023/06/18 13:27:08;;;;;;;2.63;1.90;;;;;;;;;;5075588;28;20224;-52
2023/06/18 13:29:34;;;;;;;2.80;1.83;;;;;;;;;;5074413;28;20044;-52
2023/06/18 13:32:03;;;;;;;1.90;1.50;;;;;;;;;;5073817;28;20040;-52
2023/06/18 13:34:29;;;;;;;2.70;1.98;;;;;;;;;;5090104;27;20063;-52
2023/06/18 13:36:55;;;;;;;2.92;2.00;;;;;;;;;;5075918;28;20060;-52
2023/06/18 13:39:23;;;;;;;2.80;1.70;;;;;;;;;;5069311;28;20047;-52
2023/06/18 13:41:49;;;;;;;2.28;1.90;;;;;;;;;;5074929;28;20048;-53
2023/06/18 13:44:16;;;;;;;3.90;2.50;;;;;;;;;;5074145;28;20041;-52
2023/06/18 13:46:43;;;;;;;2.70;1.92;;;;;;;;;;5075379;28;20095;-52
2023/06/18 13:49:09;;;;;;;2.08;1.48;;;;;;;;;;5088637;27;20464;-52
2023/06/18 13:51:35;;;;;;;4.05;2.03;;;;;;;;;;5076086;28;20045;-53
2023/06/18 13:54:01;;;;;;;2.60;1.80;;;;;;;;;;5072234;28;20040;-53
2023/06/18 13:56:29;;;;;;;3.30;2.20;;;;;;;;;;5075410;28;20036;-52
2023/06/18 13:58:55;;;;;;;4.15;2.53;;;;;;;;;;5074033;28;20611;-52
2023/06/18 14:01:21;;;;;;;3.08;2.10;;;;;;;;;;5073537;27;20053;-52
2023/06/18 14:03:47;;;;;;;2.97;2.13;;;;;;;;;;5075188;28;20040;-52
2023/06/18 14:06:13;;;;;;;2.63;2.00;;;;;;;;;;5072192;27;20270;-52
2023/06/18 14:08:43;;;;;;;4.18;1.88;;;;;;;;;;5073171;28;20036;-52
2023/06/18 14:11:10;;;;;;;2.90;2.05;;;;;;;;;;5075625;28;20041;-52
2023/06/18 14:13:37;;;;;;;4.30;2.00;;;;;;;;;;5072512;28;20036;-52
2023/06/18 14:16:03;;;;;;;2.60;1.90;;;;;;;;;;5075981;28;20440;-53
2023/06/18 14:18:30;;;;;;;3.58;2.08;;;;;;;;;;5074424;28;20590;-52
2023/06/18 14:20:56;;;;;;;3.15;2.00;;;;;;;;;;5075479;28;20045;-53
2023/06/18 14:23:22;;;;;;;2.70;1.80;;;;;;;;;;5083968;27;20536;-53
2023/06/18 14:25:48;;;;;;;2.35;1.90;;;;;;;;;;5073274;28;20063;-52
2023/06/18 14:28:15;;;;;;;3.42;1.70;;;;;;;;;;5071263;28;20044;-53
2023/06/18 14:30:41;;;;;;;3.70;2.22;;;;;;;;;;5069528;28;20544;-53
2023/06/18 14:33:08;;;;;;;2.47;1.77;;;;;;;;;;5071958;28;20032;-53
2023/06/18 14:35:34;;;;;;;3.25;1.83;;;;;;;;;;5065532;28;20048;-53
2023/06/18 14:38:00;;;;;;;2.97;2.05;;;;;;;;;;5074781;28;20118;-53
2023/06/18 14:40:26;;;;;;;1.98;1.63;;;;;;;;;;5073868;28;20044;-53
2023/06/18 14:42:52;;;;;;;3.13;2.00;;;;;;;;;;5089482;27;20102;-53